Terminal Aerodrome Forecast
Issued by NWS

Home | Current Version | Previous Version | Text Only | Print | Product List | Glossary On
Versions: 1 2 3 4 5 6 7 8 9 10 11 12 13 14 15 16
000
FTAK31 PAJN 200500 RRA
TAFAPG
TAF
PAPG 200541Z 2006/2106 07006G16KT P6SM VCSH BKN060 BKN100
      WS020/14040KT
     FM200900 09006G16KT 6SM -RA BR BKN030 OVC050 WS020/14040KT
     FM201200 11008KT 4SM -RA BR SCT015 OVC025 WS020/16035KT
     FM201600 08008KT 6SM -SHRA BKN025 OVC035 WS020/15035KT
      AMD LTD TO CLD VIS AND WIND 2006/2015=

USA.gov is the U.S. government's official web portal to all federal, state and local government web resources and services.